createdAt,value
2022-10-24T00:01:11.033Z,2.97
2022-10-24T00:03:39.420Z,3.07
2022-10-24T00:06:08.033Z,2.93
2022-10-24T00:08:38.141Z,3.10
2022-10-24T00:11:10.148Z,2.80
2022-10-24T00:13:38.650Z,2.73
2022-10-24T00:16:07.308Z,3.03
2022-10-24T00:18:35.628Z,3.00
2022-10-24T00:21:03.965Z,3.07
2022-10-24T00:23:32.172Z,3.20
2022-10-24T00:26:04.055Z,3.23
2022-10-24T00:28:32.488Z,3.10
2022-10-24T00:31:00.759Z,3.43
2022-10-24T00:33:29.465Z,3.07
2022-10-24T00:35:57.701Z,3.40
2022-10-24T00:38:26.128Z,3.57
2022-10-24T00:40:54.381Z,3.93
2022-10-24T00:43:25.473Z,3.30
2022-10-24T00:45:56.022Z,2.87
2022-10-24T00:48:26.180Z,3.27
2022-10-24T00:50:55.721Z,3.40
2022-10-24T00:53:24.287Z,3.30
2022-10-24T00:55:54.210Z,2.93
2022-10-24T00:58:25.044Z,3.20
2022-10-24T01:00:53.453Z,3.50
2022-10-24T01:03:21.800Z,3.40
2022-10-24T01:05:55.782Z,2.97
2022-10-24T01:08:29.045Z,3.20
2022-10-24T01:11:04.798Z,3.33
2022-10-24T01:13:41.064Z,2.93
2022-10-24T01:16:13.420Z,3.60
2022-10-24T01:18:45.023Z,3.30
2022-10-24T01:21:17.554Z,3.23
2022-10-24T01:23:55.448Z,3.50
2022-10-24T01:26:38.185Z,3.10
2022-10-24T01:29:14.932Z,3.17
2022-10-24T01:31:47.524Z,3.20
2022-10-24T01:34:19.136Z,2.77
2022-10-24T01:36:49.578Z,3.10
2022-10-24T01:39:20.274Z,3.30
2022-10-24T01:41:49.216Z,2.97
2022-10-24T01:44:20.413Z,3.10
2022-10-24T01:46:52.538Z,3.07
2022-10-24T01:49:21.956Z,3.53
2022-10-24T01:51:52.857Z,3.20
2022-10-24T01:54:21.708Z,2.90
2022-10-24T01:56:50.003Z,3.03
2022-10-24T01:59:36.701Z,3.40
2022-10-24T02:02:10.150Z,3.17
2022-10-24T02:04:40.782Z,3.03
2022-10-24T02:07:10.880Z,3.17
2022-10-24T02:09:40.085Z,3.43
2022-10-24T02:12:09.440Z,2.97
2022-10-24T02:14:40.336Z,3.17
2022-10-24T02:17:11.112Z,3.33
2022-10-24T02:19:39.768Z,3.53
2022-10-24T02:22:11.831Z,3.47
2022-10-24T02:24:43.601Z,3.30
2022-10-24T02:27:14.434Z,3.07
2022-10-24T02:29:44.560Z,3.07
2022-10-24T02:32:15.550Z,2.93
2022-10-24T02:34:44.699Z,3.33
2022-10-24T02:37:13.538Z,3.30
2022-10-24T02:39:42.664Z,3.10
2022-10-24T02:42:12.420Z,3.13
2022-10-24T02:44:41.540Z,3.63
2022-10-24T02:47:10.919Z,3.60
2022-10-24T02:49:41.177Z,2.70
2022-10-24T02:52:09.484Z,2.90
2022-10-24T02:54:37.732Z,3.20
2022-10-24T02:57:06.177Z,3.57
2022-10-24T02:59:34.394Z,3.07
2022-10-24T03:02:02.645Z,2.87
2022-10-24T03:04:30.853Z,3.13
2022-10-24T03:07:00.493Z,3.13
2022-10-24T03:09:28.700Z,3.00
2022-10-24T03:11:57.002Z,3.07
2022-10-24T03:14:25.224Z,2.90
2022-10-24T03:16:53.463Z,3.27
2022-10-24T03:19:21.703Z,3.13
2022-10-24T03:21:51.366Z,3.00
2022-10-24T03:24:31.048Z,3.10
2022-10-24T03:27:09.272Z,3.03
2022-10-24T03:29:37.576Z,3.10
2022-10-24T03:32:06.503Z,3.13
2022-10-24T03:34:34.814Z,3.07
2022-10-24T03:37:03.144Z,2.97
2022-10-24T03:39:32.898Z,2.80
2022-10-24T03:42:03.154Z,3.07
2022-10-24T03:44:31.534Z,3.13
2022-10-24T03:46:59.784Z,2.67
2022-10-24T03:49:28.462Z,3.03
2022-10-24T03:51:56.756Z,2.73
2022-10-24T03:54:25.070Z,2.80
2022-10-24T03:56:54.785Z,3.03
2022-10-24T03:59:23.247Z,2.63
2022-10-24T04:01:51.586Z,3.00
2022-10-24T04:04:19.982Z,3.27
2022-10-24T04:06:48.385Z,2.80
2022-10-24T04:09:16.858Z,3.03
2022-10-24T04:11:45.275Z,2.97
2022-10-24T04:14:15.194Z,2.93
2022-10-24T04:16:43.523Z,2.87
2022-10-24T04:19:11.839Z,2.63
2022-10-24T04:21:40.156Z,2.70
2022-10-24T04:24:08.750Z,3.03
2022-10-24T04:26:36.947Z,2.77
2022-10-24T04:29:05.202Z,2.70
2022-10-24T04:31:34.884Z,2.57
2022-10-24T04:34:03.040Z,2.37
2022-10-24T04:36:31.214Z,2.77
2022-10-24T04:41:28.587Z,2.63
2022-10-24T04:43:56.759Z,2.57
2022-10-24T04:46:25.032Z,3.10
2022-10-24T04:48:54.587Z,2.60
2022-10-24T04:51:22.885Z,2.80
2022-10-24T04:53:51.133Z,2.90
2022-10-24T04:56:19.319Z,4.23
2022-10-24T04:58:47.771Z,2.80
2022-10-24T05:01:16.035Z,2.50
2022-10-24T05:03:44.393Z,3.13
2022-10-24T05:06:14.200Z,2.97
2022-10-24T05:08:42.347Z,2.87
2022-10-24T05:11:11.429Z,3.37
2022-10-24T05:13:40.160Z,2.97
2022-10-24T05:16:08.335Z,2.70
2022-10-24T05:18:36.505Z,2.87
2022-10-24T05:21:04.760Z,2.83
2022-10-24T05:23:34.366Z,2.93
2022-10-24T05:26:02.510Z,2.50
2022-10-24T05:28:30.806Z,2.53
2022-10-24T05:30:58.973Z,2.70
2022-10-24T05:33:27.200Z,2.33
2022-10-24T05:35:55.384Z,2.60
2022-10-24T05:38:23.826Z,2.50
2022-10-24T05:40:53.777Z,2.60
2022-10-24T05:43:21.968Z,2.40
2022-10-24T05:48:23.766Z,2.67
2022-10-24T05:50:51.945Z,2.40
2022-10-24T05:53:20.089Z,2.27
2022-10-24T05:55:48.248Z,2.27
2022-10-24T05:58:20.950Z,2.40
2022-10-24T06:00:53.528Z,2.00
2022-10-24T06:03:22.162Z,2.40
2022-10-24T06:05:50.346Z,3.07
2022-10-24T06:08:18.652Z,2.27
2022-10-24T06:10:48.540Z,2.20
2022-10-24T06:13:18.433Z,2.40
2022-10-24T06:15:46.821Z,1.90
2022-10-24T06:18:15.041Z,2.23
2022-10-24T06:20:43.226Z,2.20
2022-10-24T06:23:11.566Z,2.20
2022-10-24T06:25:42.249Z,2.50
2022-10-24T06:28:12.123Z,2.50
2022-10-24T06:30:42.532Z,2.47
2022-10-24T06:33:10.756Z,3.13
2022-10-24T06:35:38.927Z,2.50
2022-10-24T06:38:07.121Z,2.10
2022-10-24T06:40:35.319Z,2.07
2022-10-24T06:43:03.583Z,2.00
2022-10-24T06:45:31.726Z,2.20
2022-10-24T06:48:01.258Z,1.90
2022-10-24T06:50:29.442Z,2.43
2022-10-24T06:52:57.611Z,2.47
2022-10-24T06:55:25.805Z,2.20
2022-10-24T06:57:54.628Z,1.93
2022-10-24T07:00:22.926Z,2.50
2022-10-24T07:02:51.096Z,2.43
2022-10-24T07:05:20.809Z,2.67
2022-10-24T07:07:48.994Z,2.33
2022-10-24T07:10:17.177Z,2.60
2022-10-24T07:12:45.607Z,1.80
2022-10-24T07:15:14.129Z,2.13
2022-10-24T07:17:42.664Z,2.30
2022-10-24T07:20:11.428Z,1.93
2022-10-24T07:22:41.367Z,1.90
2022-10-24T07:25:10.122Z,2.00
2022-10-24T07:27:38.379Z,1.97
2022-10-24T07:30:06.811Z,2.00
2022-10-24T07:32:35.401Z,2.03
2022-10-24T07:35:03.553Z,2.00
2022-10-24T07:37:31.789Z,1.93
2022-10-24T07:40:01.352Z,1.90
2022-10-24T07:42:29.538Z,1.80
2022-10-24T07:44:57.716Z,1.83
2022-10-24T07:47:25.864Z,2.00
2022-10-24T07:49:54.048Z,2.00
2022-10-24T07:52:22.229Z,1.93
2022-10-24T07:54:50.385Z,2.10
2022-10-24T07:57:19.914Z,2.20
2022-10-24T07:59:48.080Z,2.40
2022-10-24T08:02:16.839Z,2.07
2022-10-24T08:04:45.450Z,1.80
2022-10-24T08:07:14.192Z,1.90
2022-10-24T08:09:43.043Z,1.97
2022-10-24T08:12:11.562Z,2.13
2022-10-24T08:14:41.544Z,2.07
2022-10-24T08:17:09.717Z,2.10
2022-10-24T08:19:43.674Z,1.73
2022-10-24T08:22:12.988Z,1.80
2022-10-24T08:24:41.193Z,1.93
2022-10-24T08:27:09.450Z,2.40
2022-10-24T08:29:37.706Z,2.30
2022-10-24T08:32:07.758Z,1.70
2022-10-24T08:34:36.301Z,1.53
2022-10-24T08:37:05.260Z,1.93
2022-10-24T08:39:33.431Z,2.60
2022-10-24T08:42:04.448Z,1.80
2022-10-24T08:44:35.560Z,1.83
2022-10-24T08:47:05.788Z,1.80
2022-10-24T08:49:39.178Z,1.70
2022-10-24T08:52:13.337Z,1.80
2022-10-24T08:54:43.106Z,1.60
2022-10-24T08:57:17.167Z,2.13
2022-10-24T08:59:45.353Z,2.07
2022-10-24T09:02:17.497Z,1.83
2022-10-24T09:04:49.342Z,1.93
2022-10-24T09:07:19.733Z,1.60
2022-10-24T09:09:49.675Z,2.03
2022-10-24T09:12:19.393Z,2.17
2022-10-24T09:14:48.576Z,2.07
2022-10-24T09:17:20.181Z,2.13
2022-10-24T09:19:52.641Z,2.10
2022-10-24T09:22:21.251Z,2.10
2022-10-24T09:24:52.877Z,2.40
2022-10-24T09:29:55.374Z,2.30
2022-10-24T09:32:26.701Z,1.83
2022-10-24T09:34:56.813Z,2.00
2022-10-24T09:37:36.463Z,1.57
2022-10-24T09:40:20.953Z,2.13
2022-10-24T09:42:51.081Z,1.93
2022-10-24T09:45:31.039Z,2.00
2022-10-24T09:48:00.002Z,2.40
2022-10-24T09:50:29.868Z,1.93
2022-10-24T09:52:59.575Z,1.80
2022-10-24T09:55:31.115Z,2.20
2022-10-24T09:58:05.535Z,2.17
2022-10-24T10:00:35.343Z,2.27
2022-10-24T10:03:05.062Z,2.03
2022-10-24T10:05:47.556Z,1.93
2022-10-24T10:08:20.541Z,2.27
2022-10-24T10:10:57.064Z,2.30
2022-10-24T10:13:27.206Z,2.50
2022-10-24T10:15:56.615Z,2.00
2022-10-24T10:18:29.895Z,2.27
2022-10-24T10:21:07.705Z,2.33
2022-10-24T10:23:37.298Z,2.10
2022-10-24T10:26:13.474Z,1.97
2022-10-24T10:28:44.454Z,2.10
2022-10-24T10:31:12.656Z,1.80
2022-10-24T10:34:05.457Z,2.23
2022-10-24T10:36:37.452Z,1.77
2022-10-24T10:39:24.980Z,2.20
2022-10-24T10:44:44.983Z,1.77
2022-10-24T10:47:16.179Z,2.47
2022-10-24T10:49:44.472Z,2.13
2022-10-24T10:52:18.078Z,2.10
2022-10-24T10:54:56.037Z,2.27
2022-10-24T10:57:29.029Z,2.00
2022-10-24T11:00:00.224Z,2.17
2022-10-24T11:02:50.764Z,2.30
2022-10-24T11:05:27.168Z,2.07
2022-10-24T11:08:01.507Z,1.87
2022-10-24T11:10:31.400Z,2.13
2022-10-24T11:13:00.589Z,2.10
2022-10-24T11:15:30.350Z,2.00
2022-10-24T11:18:00.225Z,2.23
2022-10-24T11:20:30.317Z,2.30
2022-10-24T11:23:04.216Z,2.37
2022-10-24T11:25:35.159Z,2.30
2022-10-24T11:28:08.636Z,2.30
2022-10-24T11:30:46.213Z,2.27
2022-10-24T11:33:18.457Z,2.70
2022-10-24T11:35:58.413Z,2.40
2022-10-24T11:38:28.785Z,2.23
2022-10-24T11:40:59.293Z,2.37
2022-10-24T11:43:30.770Z,2.17
2022-10-24T11:46:01.276Z,2.17
2022-10-24T11:48:32.467Z,2.08
2022-10-24T11:51:03.561Z,2.20
2022-10-24T11:53:47.078Z,2.22
2022-10-24T11:56:23.460Z,1.98
2022-10-24T11:58:56.982Z,2.10
2022-10-24T12:01:55.242Z,2.40
2022-10-24T12:04:41.770Z,1.87
2022-10-24T12:07:28.613Z,2.70
2022-10-24T12:10:05.521Z,2.13
2022-10-24T12:12:48.829Z,2.50
2022-10-24T12:15:32.203Z,2.33
2022-10-24T12:18:06.944Z,2.67
2022-10-24T12:20:36.580Z,2.33
2022-10-24T12:23:05.437Z,2.03
2022-10-24T12:25:35.520Z,2.20
2022-10-24T12:28:05.403Z,2.50
2022-10-24T12:30:39.662Z,2.17
2022-10-24T12:33:12.890Z,2.10
2022-10-24T12:35:48.877Z,2.17
2022-10-24T12:38:18.644Z,2.33
2022-10-24T12:40:58.539Z,2.20
2022-10-24T12:43:32.313Z,2.90
2022-10-24T12:46:09.393Z,2.50
2022-10-24T12:48:43.135Z,1.90
2022-10-24T12:51:31.055Z,2.20
2022-10-24T12:54:17.146Z,2.30
2022-10-24T12:57:04.207Z,2.43
2022-10-24T12:59:33.572Z,2.30
2022-10-24T13:02:27.067Z,2.50
2022-10-24T13:05:02.585Z,2.63
2022-10-24T13:07:45.131Z,2.80
2022-10-24T13:10:29.694Z,2.30
2022-10-24T13:13:05.230Z,2.35
2022-10-24T13:15:38.450Z,2.50
2022-10-24T13:18:13.924Z,2.45
2022-10-24T13:20:43.858Z,2.22
2022-10-24T13:23:16.285Z,2.55
2022-10-24T13:25:45.128Z,2.47
2022-10-24T13:28:46.423Z,2.45
2022-10-24T13:31:34.110Z,2.33
2022-10-24T13:34:14.311Z,2.20
2022-10-24T13:36:43.257Z,2.30
2022-10-24T13:39:16.268Z,2.30
2022-10-24T13:41:46.407Z,2.13
2022-10-24T13:44:22.017Z,2.50
2022-10-24T13:46:54.411Z,2.37
2022-10-24T13:49:27.215Z,2.47
2022-10-24T13:51:56.860Z,1.93
2022-10-24T13:54:27.978Z,2.47
2022-10-24T13:56:59.731Z,2.80
2022-10-24T13:59:30.433Z,2.33
2022-10-24T14:01:59.515Z,3.05
2022-10-24T14:04:29.955Z,2.90
2022-10-24T14:07:02.522Z,2.50
2022-10-24T14:09:31.343Z,2.72
2022-10-24T14:11:59.751Z,2.63
2022-10-24T14:14:29.867Z,2.30
2022-10-24T14:17:23.013Z,2.13
2022-10-24T14:19:55.650Z,2.30
2022-10-24T14:22:25.055Z,2.78
2022-10-24T14:24:53.669Z,3.00
2022-10-24T14:27:22.314Z,2.00
2022-10-24T14:30:01.233Z,2.40
2022-10-24T14:32:31.240Z,2.50
2022-10-24T14:37:32.421Z,3.13
2022-10-24T14:40:01.009Z,2.20
2022-10-24T14:42:31.808Z,2.45
2022-10-24T14:45:01.380Z,2.00
2022-10-24T14:47:31.828Z,2.25
2022-10-24T14:50:01.881Z,2.92
2022-10-24T14:52:37.019Z,2.60
2022-10-24T14:55:07.013Z,2.17
2022-10-24T14:57:36.861Z,2.57
2022-10-24T15:00:08.492Z,2.50
2022-10-24T15:02:42.027Z,2.50
2022-10-24T15:05:33.102Z,2.30
2022-10-24T15:11:05.158Z,2.20
2022-10-24T15:13:34.147Z,2.27
2022-10-24T15:16:03.034Z,2.53
2022-10-24T15:18:32.617Z,2.70
2022-10-24T15:21:03.259Z,2.57
2022-10-24T15:23:34.051Z,2.17
2022-10-24T15:26:05.294Z,2.03
2022-10-24T15:28:38.434Z,2.20
2022-10-24T15:31:11.264Z,2.80
2022-10-24T15:36:08.530Z,2.03
2022-10-24T15:38:43.820Z,2.40
2022-10-24T15:41:13.079Z,2.20
2022-10-24T15:43:41.649Z,2.07
2022-10-24T15:46:10.091Z,2.43
2022-10-24T15:48:39.443Z,2.10
2022-10-24T15:51:11.792Z,2.50
2022-10-24T15:53:45.761Z,2.60
2022-10-24T15:56:16.357Z,2.60
2022-10-24T16:01:21.343Z,2.13
2022-10-24T16:03:50.525Z,1.90
2022-10-24T16:06:20.670Z,1.90
2022-10-24T16:08:51.197Z,2.37
2022-10-24T16:11:20.097Z,2.33
2022-10-24T16:13:49.197Z,2.40
2022-10-24T16:16:18.235Z,2.13
2022-10-24T16:18:47.610Z,2.27
2022-10-24T16:21:18.663Z,1.83
2022-10-24T16:23:47.441Z,2.50
2022-10-24T16:26:17.634Z,2.10
2022-10-24T16:28:46.377Z,2.80
2022-10-24T16:31:19.815Z,2.13
2022-10-24T16:33:48.749Z,2.30
2022-10-24T16:36:19.541Z,2.13
2022-10-24T16:38:50.668Z,2.33
2022-10-24T16:41:21.916Z,2.37
2022-10-24T16:43:50.941Z,2.23
2022-10-24T16:46:20.711Z,1.97
2022-10-24T16:48:50.491Z,1.97
2022-10-24T16:51:19.833Z,2.00
2022-10-24T16:53:48.162Z,1.90
2022-10-24T16:56:17.010Z,2.93
2022-10-24T16:58:47.297Z,2.07
2022-10-24T17:01:17.448Z,2.23
2022-10-24T17:03:46.677Z,1.90
2022-10-24T17:06:15.986Z,1.60
2022-10-24T17:08:46.820Z,1.80
2022-10-24T17:11:39.868Z,2.00
2022-10-24T17:14:05.493Z,1.77
2022-10-24T17:16:33.903Z,1.83
2022-10-24T17:19:15.192Z,2.00
2022-10-24T17:21:46.753Z,1.90
2022-10-24T17:24:15.804Z,1.77
2022-10-24T17:26:44.157Z,1.83
2022-10-24T17:29:14.795Z,2.10
2022-10-24T17:31:43.161Z,1.77
2022-10-24T17:34:11.649Z,2.20
2022-10-24T17:36:40.847Z,1.90
2022-10-24T17:39:13.362Z,2.63
2022-10-24T17:41:42.188Z,2.00
2022-10-24T17:44:14.726Z,2.63
2022-10-24T17:46:44.709Z,2.40
2022-10-24T17:49:17.777Z,1.93
2022-10-24T17:51:50.929Z,2.20
2022-10-24T17:54:19.998Z,2.40
2022-10-24T17:56:48.669Z,2.53
2022-10-24T17:59:17.955Z,1.83
2022-10-24T18:01:47.874Z,2.93
2022-10-24T18:04:16.559Z,2.87
2022-10-24T18:06:44.984Z,2.13
2022-10-24T18:09:13.331Z,2.47
2022-10-24T18:11:43.282Z,3.07
2022-10-24T18:14:11.573Z,2.17
2022-10-24T18:16:40.413Z,2.43
2022-10-24T18:19:10.067Z,2.63
2022-10-24T18:21:38.579Z,2.57
2022-10-24T18:24:08.146Z,3.03
2022-10-24T18:26:36.740Z,2.67
2022-10-24T18:29:05.093Z,2.53
2022-10-24T18:31:34.042Z,2.37
2022-10-24T18:34:07.559Z,2.77
2022-10-24T18:36:38.099Z,2.67
2022-10-24T18:39:06.938Z,2.77
2022-10-24T18:41:46.596Z,3.67
2022-10-24T18:44:23.218Z,3.53
2022-10-24T18:46:53.052Z,2.63
2022-10-24T18:49:21.590Z,2.67
2022-10-24T18:51:54.893Z,2.80
2022-10-24T18:54:24.018Z,3.00
2022-10-24T18:56:53.068Z,2.77
2022-10-24T18:59:22.212Z,2.13
2022-10-24T19:01:57.356Z,2.80
2022-10-24T19:04:26.933Z,2.80
2022-10-24T19:06:57.839Z,2.37
2022-10-24T19:09:27.254Z,2.47
2022-10-24T19:11:55.729Z,2.67
2022-10-24T19:14:25.128Z,3.70
2022-10-24T19:16:54.033Z,2.83
2022-10-24T19:19:24.650Z,2.83
2022-10-24T19:21:53.108Z,2.50
2022-10-24T19:24:23.210Z,2.20
2022-10-24T19:26:51.995Z,2.70
2022-10-24T19:29:20.256Z,2.53
2022-10-24T19:31:48.717Z,2.50
2022-10-24T19:34:17.351Z,2.60
2022-10-24T19:36:45.840Z,2.37
2022-10-24T19:39:14.250Z,2.37
2022-10-24T19:41:44.925Z,2.40
2022-10-24T19:44:13.641Z,2.60
2022-10-24T19:46:41.917Z,2.57
2022-10-24T19:49:10.282Z,2.57
2022-10-24T19:51:38.678Z,2.53
2022-10-24T19:54:07.013Z,2.70
2022-10-24T19:56:35.321Z,2.50
2022-10-24T19:59:05.037Z,2.33
2022-10-24T20:01:33.602Z,2.43
2022-10-24T20:04:02.344Z,2.60
2022-10-24T20:06:30.751Z,2.23
2022-10-24T20:08:59.139Z,2.80
2022-10-24T20:11:28.153Z,2.67
2022-10-24T20:13:56.745Z,2.57
2022-10-24T20:16:26.793Z,2.60
2022-10-24T20:18:56.210Z,2.30
2022-10-24T20:21:24.621Z,3.10
2022-10-24T20:23:53.801Z,2.63
2022-10-24T20:26:23.990Z,3.00
2022-10-24T20:28:57.461Z,2.50
2022-10-24T20:31:44.566Z,2.80
2022-10-24T20:34:19.562Z,2.83
2022-10-24T20:36:48.259Z,2.97
2022-10-24T20:39:21.084Z,3.00
2022-10-24T20:41:53.263Z,3.80
2022-10-24T20:44:23.233Z,3.80
2022-10-24T20:46:55.558Z,3.27
2022-10-24T20:49:25.584Z,2.93
2022-10-24T20:51:54.437Z,3.23
2022-10-24T20:54:23.963Z,3.33
2022-10-24T20:56:53.326Z,3.53
2022-10-24T20:59:22.769Z,3.40
2022-10-24T21:01:51.838Z,3.80
2022-10-24T21:04:21.019Z,3.73
2022-10-24T21:06:51.018Z,4.27
2022-10-24T21:09:21.655Z,3.67
2022-10-24T21:11:50.248Z,3.73
2022-10-24T21:14:20.720Z,4.20
2022-10-24T21:16:49.428Z,3.97
2022-10-24T21:19:17.857Z,3.73
2022-10-24T21:21:47.492Z,4.33
2022-10-24T21:24:18.035Z,4.17
2022-10-24T21:26:46.599Z,4.23
2022-10-24T21:29:32.192Z,3.70
2022-10-24T21:32:02.661Z,3.83
2022-10-24T21:34:34.188Z,4.07
2022-10-24T21:37:03.671Z,3.80
2022-10-24T21:39:33.559Z,3.70
2022-10-24T21:42:02.317Z,3.23
2022-10-24T21:44:31.486Z,3.57
2022-10-24T21:46:59.863Z,3.40
2022-10-24T21:49:31.608Z,3.53
2022-10-24T21:52:00.468Z,3.10
2022-10-24T21:54:30.278Z,3.20
2022-10-24T21:56:59.993Z,3.70
2022-10-24T21:59:28.327Z,3.33
2022-10-24T22:01:56.837Z,3.00
2022-10-24T22:04:25.613Z,3.33
2022-10-24T22:06:54.899Z,3.10
2022-10-24T22:09:24.631Z,3.23
2022-10-24T22:11:54.478Z,3.20
2022-10-24T22:14:24.369Z,4.03
2022-10-24T22:16:53.092Z,3.53
2022-10-24T22:19:21.410Z,3.93
2022-10-24T22:21:51.172Z,3.80
2022-10-24T22:24:20.460Z,3.80
2022-10-24T22:26:49.043Z,3.27
2022-10-24T22:29:18.099Z,3.23
2022-10-24T22:31:48.108Z,3.60
2022-10-24T22:34:17.324Z,3.10
2022-10-24T22:36:51.985Z,3.23
2022-10-24T22:39:22.668Z,3.37
2022-10-24T22:41:51.737Z,2.97
2022-10-24T22:44:21.530Z,3.17
2022-10-24T22:46:58.533Z,2.77
2022-10-24T22:49:31.983Z,3.03
2022-10-24T22:52:00.604Z,2.60
2022-10-24T22:54:33.148Z,3.10
2022-10-24T22:57:01.679Z,2.97
2022-10-24T22:59:30.336Z,2.97
2022-10-24T23:02:03.681Z,2.60
2022-10-24T23:04:35.634Z,2.37
2022-10-24T23:07:08.081Z,2.10
2022-10-24T23:09:36.532Z,2.07
2022-10-24T23:12:09.802Z,2.30
2022-10-24T23:14:38.450Z,2.30
2022-10-24T23:17:08.523Z,2.30
2022-10-24T23:19:40.664Z,2.33
2022-10-24T23:22:12.726Z,1.90
2022-10-24T23:24:41.567Z,2.00
2022-10-24T23:27:16.958Z,2.00
2022-10-24T23:29:46.290Z,2.07
2022-10-24T23:32:20.965Z,2.07
2022-10-24T23:34:49.632Z,2.00
2022-10-24T23:37:23.406Z,1.93
2022-10-24T23:39:52.266Z,2.10
2022-10-24T23:42:20.877Z,1.80
2022-10-24T23:44:49.464Z,2.03
2022-10-24T23:47:24.366Z,1.60
2022-10-24T23:49:57.182Z,1.97
2022-10-24T23:52:28.075Z,2.40
2022-10-24T23:54:56.635Z,2.20
2022-10-24T23:57:25.146Z,2.30
2022-10-24T23:59:53.317Z,2.07
